Archival Weather

Norman Y Mineta San Jose Intl

San Jose, California (KSJC)

Report from: Tuesday, February 27, 2024 11:53 AM PST
Current time: Friday, June 14, 2024 6:48 AM PDT

Current weather – Weather history – Daily summaries
Weather forecast

Temperature15.6°C (60.1°F)
Dew point1.7°C (35.1°F)
Winds 10 kts (5.1 m/s, 11.5 mph) Northwest (320°)
Visibility10 mi. (16.1 km)
Clouds Few clouds 2,600 ft. (792 m)
Ceiling: Broken clouds 9,000 ft. (2,743 m)
Altimeter30.09 in.Hg (1019 mB)
Relative humidity39 %
Density altitude-17 ft. (-5 m)
Sea-level pressure101.9 kPa (1019 mB, 30.09 in.Hg)
Remarks Corrected report
System requires maintenance
Automated weather observing station with precipitation discriminator
Flight conditions Visual Meteorological Conditions
Raw dataKSJC 271953Z COR 32010KT 10SM FEW026 BKN090 16/02 A3009 RMK AO2 SLP190 T01560017 $
An error has occurred. This application may no longer respond until reloaded. Reload 🗙